sensor_id;sensor_type;location;lat;lon;timestamp;P1;durP1;ratioP1;P2;durP2;ratioP2
55314;SDS011;41619;42.816;23.226;2023-06-19T00:01:26;22.05;;;11.65;;
55314;SDS011;41619;42.816;23.226;2023-06-19T00:03:52;17.55;;;11.38;;
55314;SDS011;41619;42.816;23.226;2023-06-19T00:06:17;14.45;;;10.18;;
55314;SDS011;41619;42.816;23.226;2023-06-19T00:08:43;17.20;;;11.07;;
55314;SDS011;41619;42.816;23.226;2023-06-19T00:11:08;17.77;;;10.70;;
55314;SDS011;41619;42.816;23.226;2023-06-19T00:13:34;16.35;;;10.13;;
55314;SDS011;41619;42.816;23.226;2023-06-19T00:15:59;15.07;;;10.45;;
55314;SDS011;41619;42.816;23.226;2023-06-19T00:18:26;16.85;;;10.23;;
55314;SDS011;41619;42.816;23.226;2023-06-19T00:20:52;15.77;;;11.00;;
55314;SDS011;41619;42.816;23.226;2023-06-19T00:23:19;17.95;;;9.32;;
55314;SDS011;41619;42.816;23.226;2023-06-19T00:25:45;19.50;;;10.70;;
55314;SDS011;41619;42.816;23.226;2023-06-19T00:28:10;14.25;;;10.35;;
55314;SDS011;41619;42.816;23.226;2023-06-19T00:30:38;14.57;;;10.27;;
55314;SDS011;41619;42.816;23.226;2023-06-19T00:33:04;20.58;;;11.82;;
55314;SDS011;41619;42.816;23.226;2023-06-19T00:35:30;14.18;;;10.68;;
55314;SDS011;41619;42.816;23.226;2023-06-19T00:37:55;19.30;;;11.35;;
55314;SDS011;41619;42.816;23.226;2023-06-19T00:40:24;14.93;;;10.25;;
55314;SDS011;41619;42.816;23.226;2023-06-19T00:42:53;14.85;;;10.68;;
55314;SDS011;41619;42.816;23.226;2023-06-19T00:45:18;13.63;;;10.52;;
55314;SDS011;41619;42.816;23.226;2023-06-19T00:47:43;14.15;;;10.48;;
55314;SDS011;41619;42.816;23.226;2023-06-19T00:50:10;17.05;;;10.68;;
55314;SDS011;41619;42.816;23.226;2023-06-19T00:52:36;15.02;;;10.77;;
55314;SDS011;41619;42.816;23.226;2023-06-19T00:55:02;13.25;;;10.48;;
55314;SDS011;41619;42.816;23.226;2023-06-19T00:57:29;17.58;;;9.93;;
55314;SDS011;41619;42.816;23.226;2023-06-19T00:59:56;20.35;;;9.60;;
55314;SDS011;41619;42.816;23.226;2023-06-19T01:02:23;21.13;;;9.73;;
55314;SDS011;41619;42.816;23.226;2023-06-19T01:04:49;14.27;;;9.73;;
55314;SDS011;41619;42.816;23.226;2023-06-19T01:07:17;13.25;;;8.32;;
55314;SDS011;41619;42.816;23.226;2023-06-19T01:09:49;12.93;;;9.30;;
55314;SDS011;41619;42.816;23.226;2023-06-19T01:12:20;12.65;;;9.77;;
55314;SDS011;41619;42.816;23.226;2023-06-19T01:14:53;20.52;;;10.27;;
55314;SDS011;41619;42.816;23.226;2023-06-19T01:17:22;17.75;;;10.02;;
55314;SDS011;41619;42.816;23.226;2023-06-19T01:19:48;15.95;;;9.93;;
55314;SDS011;41619;42.816;23.226;2023-06-19T01:22:29;22.35;;;8.98;;
55314;SDS011;41619;42.816;23.226;2023-06-19T01:24:55;11.98;;;10.10;;
55314;SDS011;41619;42.816;23.226;2023-06-19T01:27:21;13.68;;;8.70;;
55314;SDS011;41619;42.816;23.226;2023-06-19T01:32:20;13.52;;;9.27;;
55314;SDS011;41619;42.816;23.226;2023-06-19T01:34:51;18.67;;;8.35;;
55314;SDS011;41619;42.816;23.226;2023-06-19T01:37:19;16.65;;;8.38;;
55314;SDS011;41619;42.816;23.226;2023-06-19T01:39:45;13.68;;;9.57;;
55314;SDS011;41619;42.816;23.226;2023-06-19T01:42:11;14.65;;;8.65;;
55314;SDS011;41619;42.816;23.226;2023-06-19T01:44:39;16.65;;;8.82;;
55314;SDS011;41619;42.816;23.226;2023-06-19T01:47:11;11.15;;;8.95;;
55314;SDS011;41619;42.816;23.226;2023-06-19T01:49:37;11.98;;;7.90;;
55314;SDS011;41619;42.816;23.226;2023-06-19T01:52:03;12.73;;;8.25;;
55314;SDS011;41619;42.816;23.226;2023-06-19T01:54:29;22.33;;;8.80;;
55314;SDS011;41619;42.816;23.226;2023-06-19T01:56:55;12.07;;;8.80;;
55314;SDS011;41619;42.816;23.226;2023-06-19T01:59:22;8.50;;;7.45;;
55314;SDS011;41619;42.816;23.226;2023-06-19T02:01:47;13.20;;;8.77;;
55314;SDS011;41619;42.816;23.226;2023-06-19T02:04:13;20.90;;;8.80;;
55314;SDS011;41619;42.816;23.226;2023-06-19T02:06:38;15.10;;;8.40;;
55314;SDS011;41619;42.816;23.226;2023-06-19T02:09:04;14.00;;;8.77;;
55314;SDS011;41619;42.816;23.226;2023-06-19T02:11:29;12.45;;;8.55;;
55314;SDS011;41619;42.816;23.226;2023-06-19T02:13:54;17.75;;;8.95;;
55314;SDS011;41619;42.816;23.226;2023-06-19T02:16:20;23.45;;;9.18;;
55314;SDS011;41619;42.816;23.226;2023-06-19T02:18:45;15.75;;;8.27;;
55314;SDS011;41619;42.816;23.226;2023-06-19T02:21:11;15.77;;;8.88;;
55314;SDS011;41619;42.816;23.226;2023-06-19T02:23:36;16.98;;;8.65;;
55314;SDS011;41619;42.816;23.226;2023-06-19T02:26:01;16.08;;;8.10;;
55314;SDS011;41619;42.816;23.226;2023-06-19T02:28:27;13.93;;;8.32;;
55314;SDS011;41619;42.816;23.226;2023-06-19T02:30:53;18.40;;;8.52;;
55314;SDS011;41619;42.816;23.226;2023-06-19T02:33:19;12.85;;;8.82;;
55314;SDS011;41619;42.816;23.226;2023-06-19T02:35:44;18.70;;;7.70;;
55314;SDS011;41619;42.816;23.226;2023-06-19T02:38:10;12.18;;;8.65;;
55314;SDS011;41619;42.816;23.226;2023-06-19T02:40:37;13.45;;;7.88;;
55314;SDS011;41619;42.816;23.226;2023-06-19T02:43:03;16.67;;;8.85;;
55314;SDS011;41619;42.816;23.226;2023-06-19T02:45:28;18.30;;;8.93;;
55314;SDS011;41619;42.816;23.226;2023-06-19T02:47:54;15.40;;;7.78;;
55314;SDS011;41619;42.816;23.226;2023-06-19T02:50:19;14.15;;;8.90;;
55314;SDS011;41619;42.816;23.226;2023-06-19T02:52:45;23.42;;;8.40;;
55314;SDS011;41619;42.816;23.226;2023-06-19T02:55:10;12.27;;;8.23;;
55314;SDS011;41619;42.816;23.226;2023-06-19T02:57:35;10.13;;;8.13;;
55314;SDS011;41619;42.816;23.226;2023-06-19T03:00:01;14.10;;;8.07;;
55314;SDS011;41619;42.816;23.226;2023-06-19T03:02:27;12.10;;;8.57;;
55314;SDS011;41619;42.816;23.226;2023-06-19T03:04:52;22.90;;;9.60;;
55314;SDS011;41619;42.816;23.226;2023-06-19T03:07:17;14.30;;;8.57;;
55314;SDS011;41619;42.816;23.226;2023-06-19T03:09:43;20.70;;;9.05;;
55314;SDS011;41619;42.816;23.226;2023-06-19T03:12:08;19.55;;;9.57;;
55314;SDS011;41619;42.816;23.226;2023-06-19T03:14:34;19.27;;;8.32;;
55314;SDS011;41619;42.816;23.226;2023-06-19T03:17:00;14.85;;;8.40;;
55314;SDS011;41619;42.816;23.226;2023-06-19T03:19:25;18.70;;;9.73;;
55314;SDS011;41619;42.816;23.226;2023-06-19T03:21:51;18.02;;;9.73;;
55314;SDS011;41619;42.816;23.226;2023-06-19T03:24:16;19.42;;;8.55;;
55314;SDS011;41619;42.816;23.226;2023-06-19T03:26:42;13.88;;;8.05;;
55314;SDS011;41619;42.816;23.226;2023-06-19T03:29:07;16.55;;;8.50;;
55314;SDS011;41619;42.816;23.226;2023-06-19T03:31:33;15.52;;;9.07;;
55314;SDS011;41619;42.816;23.226;2023-06-19T03:33:58;18.40;;;8.82;;
55314;SDS011;41619;42.816;23.226;2023-06-19T03:36:23;14.30;;;8.98;;
55314;SDS011;41619;42.816;23.226;2023-06-19T03:38:49;16.77;;;8.82;;
55314;SDS011;41619;42.816;23.226;2023-06-19T03:41:14;22.05;;;9.10;;
55314;SDS011;41619;42.816;23.226;2023-06-19T03:43:40;16.73;;;8.95;;
55314;SDS011;41619;42.816;23.226;2023-06-19T03:46:05;13.82;;;8.98;;
55314;SDS011;41619;42.816;23.226;2023-06-19T03:48:31;15.07;;;8.30;;
55314;SDS011;41619;42.816;23.226;2023-06-19T03:50:56;13.50;;;9.63;;
55314;SDS011;41619;42.816;23.226;2023-06-19T03:53:22;19.85;;;8.90;;
55314;SDS011;41619;42.816;23.226;2023-06-19T03:55:47;11.60;;;9.02;;
55314;SDS011;41619;42.816;23.226;2023-06-19T03:58:12;16.08;;;9.43;;
55314;SDS011;41619;42.816;23.226;2023-06-19T04:00:38;20.02;;;9.50;;
55314;SDS011;41619;42.816;23.226;2023-06-19T04:03:03;12.63;;;9.30;;
55314;SDS011;41619;42.816;23.226;2023-06-19T04:05:29;19.17;;;10.00;;
55314;SDS011;41619;42.816;23.226;2023-06-19T04:07:54;12.32;;;8.75;;
55314;SDS011;41619;42.816;23.226;2023-06-19T04:10:20;14.90;;;9.57;;
55314;SDS011;41619;42.816;23.226;2023-06-19T04:12:46;15.77;;;9.48;;
55314;SDS011;41619;42.816;23.226;2023-06-19T04:15:12;15.68;;;9.20;;
55314;SDS011;41619;42.816;23.226;2023-06-19T04:17:38;11.63;;;8.68;;
55314;SDS011;41619;42.816;23.226;2023-06-19T04:20:03;11.73;;;9.60;;
55314;SDS011;41619;42.816;23.226;2023-06-19T04:22:36;16.58;;;9.10;;
55314;SDS011;41619;42.816;23.226;2023-06-19T04:25:06;13.35;;;9.27;;
55314;SDS011;41619;42.816;23.226;2023-06-19T04:27:33;23.58;;;9.05;;
55314;SDS011;41619;42.816;23.226;2023-06-19T04:29:58;18.25;;;9.55;;
55314;SDS011;41619;42.816;23.226;2023-06-19T04:32:23;19.58;;;9.02;;
55314;SDS011;41619;42.816;23.226;2023-06-19T04:34:49;13.88;;;9.20;;
55314;SDS011;41619;42.816;23.226;2023-06-19T04:37:14;11.52;;;7.85;;
55314;SDS011;41619;42.816;23.226;2023-06-19T04:39:44;14.68;;;7.50;;
55314;SDS011;41619;42.816;23.226;2023-06-19T04:42:16;14.68;;;8.48;;
55314;SDS011;41619;42.816;23.226;2023-06-19T04:44:48;17.17;;;7.55;;
55314;SDS011;41619;42.816;23.226;2023-06-19T04:47:16;12.07;;;6.97;;
55314;SDS011;41619;42.816;23.226;2023-06-19T04:49:43;15.05;;;7.93;;
55314;SDS011;41619;42.816;23.226;2023-06-19T04:52:08;12.20;;;8.35;;
55314;SDS011;41619;42.816;23.226;2023-06-19T04:54:34;16.30;;;7.18;;
55314;SDS011;41619;42.816;23.226;2023-06-19T04:56:59;12.95;;;7.60;;
55314;SDS011;41619;42.816;23.226;2023-06-19T04:59:25;17.45;;;7.30;;
55314;SDS011;41619;42.816;23.226;2023-06-19T05:01:50;14.07;;;7.75;;
55314;SDS011;41619;42.816;23.226;2023-06-19T05:04:19;17.17;;;7.70;;
55314;SDS011;41619;42.816;23.226;2023-06-19T05:06:45;14.68;;;7.55;;
55314;SDS011;41619;42.816;23.226;2023-06-19T05:09:10;14.25;;;7.32;;
55314;SDS011;41619;42.816;23.226;2023-06-19T05:11:36;13.32;;;7.45;;
55314;SDS011;41619;42.816;23.226;2023-06-19T05:14:01;13.98;;;9.85;;
55314;SDS011;41619;42.816;23.226;2023-06-19T05:16:27;9.25;;;7.50;;
55314;SDS011;41619;42.816;23.226;2023-06-19T05:18:52;13.15;;;7.20;;
55314;SDS011;41619;42.816;23.226;2023-06-19T05:21:18;11.18;;;7.63;;
55314;SDS011;41619;42.816;23.226;2023-06-19T05:23:43;13.88;;;7.75;;
55314;SDS011;41619;42.816;23.226;2023-06-19T05:26:09;13.02;;;7.60;;
55314;SDS011;41619;42.816;23.226;2023-06-19T05:28:34;15.75;;;8.18;;
55314;SDS011;41619;42.816;23.226;2023-06-19T05:30:59;16.55;;;7.55;;
55314;SDS011;41619;42.816;23.226;2023-06-19T05:33:25;12.68;;;8.10;;
55314;SDS011;41619;42.816;23.226;2023-06-19T05:35:50;20.10;;;9.10;;
55314;SDS011;41619;42.816;23.226;2023-06-19T05:38:18;14.73;;;7.67;;
55314;SDS011;41619;42.816;23.226;2023-06-19T05:40:44;11.25;;;7.43;;
55314;SDS011;41619;42.816;23.226;2023-06-19T05:43:09;19.15;;;7.38;;
55314;SDS011;41619;42.816;23.226;2023-06-19T05:45:35;16.77;;;8.93;;
55314;SDS011;41619;42.816;23.226;2023-06-19T05:48:00;13.23;;;8.40;;
55314;SDS011;41619;42.816;23.226;2023-06-19T05:50:26;15.73;;;8.02;;
55314;SDS011;41619;42.816;23.226;2023-06-19T05:52:51;20.83;;;7.60;;
55314;SDS011;41619;42.816;23.226;2023-06-19T05:55:16;14.40;;;8.10;;
55314;SDS011;41619;42.816;23.226;2023-06-19T05:57:42;17.58;;;8.05;;
55314;SDS011;41619;42.816;23.226;2023-06-19T06:00:08;13.90;;;7.55;;
55314;SDS011;41619;42.816;23.226;2023-06-19T06:02:38;15.50;;;7.22;;
55314;SDS011;41619;42.816;23.226;2023-06-19T06:05:04;14.68;;;8.00;;
55314;SDS011;41619;42.816;23.226;2023-06-19T06:07:30;17.45;;;7.50;;
55314;SDS011;41619;42.816;23.226;2023-06-19T06:09:55;10.60;;;6.85;;
55314;SDS011;41619;42.816;23.226;2023-06-19T06:12:21;9.82;;;7.00;;
55314;SDS011;41619;42.816;23.226;2023-06-19T06:14:46;14.32;;;6.72;;
55314;SDS011;41619;42.816;23.226;2023-06-19T06:17:11;21.17;;;6.68;;
55314;SDS011;41619;42.816;23.226;2023-06-19T06:19:37;22.83;;;7.43;;
55314;SDS011;41619;42.816;23.226;2023-06-19T06:22:04;20.00;;;6.57;;
55314;SDS011;41619;42.816;23.226;2023-06-19T06:24:29;32.53;;;7.80;;
55314;SDS011;41619;42.816;23.226;2023-06-19T06:26:55;28.55;;;8.23;;
55314;SDS011;41619;42.816;23.226;2023-06-19T06:29:20;11.40;;;5.50;;
55314;SDS011;41619;42.816;23.226;2023-06-19T06:31:46;10.50;;;6.18;;
55314;SDS011;41619;42.816;23.226;2023-06-19T06:34:12;17.08;;;6.75;;
55314;SDS011;41619;42.816;23.226;2023-06-19T06:36:38;16.30;;;5.82;;
55314;SDS011;41619;42.816;23.226;2023-06-19T06:39:04;9.85;;;6.15;;
55314;SDS011;41619;42.816;23.226;2023-06-19T06:41:30;10.63;;;5.68;;
55314;SDS011;41619;42.816;23.226;2023-06-19T06:43:56;8.35;;;4.82;;
55314;SDS011;41619;42.816;23.226;2023-06-19T06:46:21;9.27;;;5.28;;
55314;SDS011;41619;42.816;23.226;2023-06-19T06:48:47;10.27;;;6.07;;
55314;SDS011;41619;42.816;23.226;2023-06-19T06:51:14;8.98;;;5.32;;
55314;SDS011;41619;42.816;23.226;2023-06-19T06:53:39;8.68;;;5.50;;
55314;SDS011;41619;42.816;23.226;2023-06-19T06:56:04;9.82;;;6.32;;
55314;SDS011;41619;42.816;23.226;2023-06-19T06:58:30;9.77;;;5.50;;
55314;SDS011;41619;42.816;23.226;2023-06-19T07:00:55;10.85;;;6.05;;
55314;SDS011;41619;42.816;23.226;2023-06-19T07:03:21;15.77;;;5.95;;
55314;SDS011;41619;42.816;23.226;2023-06-19T07:05:47;10.02;;;5.28;;
55314;SDS011;41619;42.816;23.226;2023-06-19T07:08:13;12.98;;;5.30;;
55314;SDS011;41619;42.816;23.226;2023-06-19T07:10:39;10.98;;;5.90;;
55314;SDS011;41619;42.816;23.226;2023-06-19T07:13:04;8.32;;;5.13;;
55314;SDS011;41619;42.816;23.226;2023-06-19T07:15:30;10.80;;;5.13;;
55314;SDS011;41619;42.816;23.226;2023-06-19T07:17:55;6.70;;;4.47;;
55314;SDS011;41619;42.816;23.226;2023-06-19T07:20:21;15.35;;;5.43;;
55314;SDS011;41619;42.816;23.226;2023-06-19T07:22:46;9.25;;;4.60;;
55314;SDS011;41619;42.816;23.226;2023-06-19T07:25:12;6.15;;;5.07;;
55314;SDS011;41619;42.816;23.226;2023-06-19T07:27:38;7.30;;;4.53;;
55314;SDS011;41619;42.816;23.226;2023-06-19T07:30:05;10.38;;;4.85;;
55314;SDS011;41619;42.816;23.226;2023-06-19T07:32:31;13.77;;;5.00;;
55314;SDS011;41619;42.816;23.226;2023-06-19T07:34:56;8.68;;;4.95;;
55314;SDS011;41619;42.816;23.226;2023-06-19T07:37:22;7.20;;;4.85;;
55314;SDS011;41619;42.816;23.226;2023-06-19T07:39:47;8.20;;;4.53;;
55314;SDS011;41619;42.816;23.226;2023-06-19T07:42:14;9.52;;;4.82;;
55314;SDS011;41619;42.816;23.226;2023-06-19T07:44:41;7.70;;;4.75;;
55314;SDS011;41619;42.816;23.226;2023-06-19T07:47:07;24.83;;;6.57;;
55314;SDS011;41619;42.816;23.226;2023-06-19T07:49:33;11.23;;;4.53;;
55314;SDS011;41619;42.816;23.226;2023-06-19T07:51:59;5.90;;;4.35;;
55314;SDS011;41619;42.816;23.226;2023-06-19T07:54:24;8.98;;;4.75;;
55314;SDS011;41619;42.816;23.226;2023-06-19T07:56:50;9.43;;;4.30;;
55314;SDS011;41619;42.816;23.226;2023-06-19T07:59:15;9.10;;;4.45;;
55314;SDS011;41619;42.816;23.226;2023-06-19T08:01:41;9.48;;;4.47;;
55314;SDS011;41619;42.816;23.226;2023-06-19T08:04:07;5.72;;;4.00;;
55314;SDS011;41619;42.816;23.226;2023-06-19T08:06:32;10.07;;;4.22;;
55314;SDS011;41619;42.816;23.226;2023-06-19T08:08:58;12.75;;;5.38;;
55314;SDS011;41619;42.816;23.226;2023-06-19T08:11:23;5.35;;;3.97;;
55314;SDS011;41619;42.816;23.226;2023-06-19T08:13:49;10.95;;;4.63;;
55314;SDS011;41619;42.816;23.226;2023-06-19T08:16:14;8.25;;;5.03;;
55314;SDS011;41619;42.816;23.226;2023-06-19T08:18:39;10.63;;;4.60;;
55314;SDS011;41619;42.816;23.226;2023-06-19T08:21:05;4.57;;;3.97;;
55314;SDS011;41619;42.816;23.226;2023-06-19T08:23:30;7.90;;;4.25;;
55314;SDS011;41619;42.816;23.226;2023-06-19T08:25:56;10.82;;;5.18;;
55314;SDS011;41619;42.816;23.226;2023-06-19T08:28:21;6.38;;;4.00;;
55314;SDS011;41619;42.816;23.226;2023-06-19T08:30:46;10.70;;;4.80;;
55314;SDS011;41619;42.816;23.226;2023-06-19T08:33:15;4.45;;;4.03;;
55314;SDS011;41619;42.816;23.226;2023-06-19T08:35:40;9.93;;;4.03;;
55314;SDS011;41619;42.816;23.226;2023-06-19T08:38:06;6.82;;;4.15;;
55314;SDS011;41619;42.816;23.226;2023-06-19T08:40:36;6.72;;;4.13;;
55314;SDS011;41619;42.816;23.226;2023-06-19T08:43:02;5.40;;;4.38;;
55314;SDS011;41619;42.816;23.226;2023-06-19T08:45:28;11.25;;;4.80;;
55314;SDS011;41619;42.816;23.226;2023-06-19T08:47:57;12.40;;;4.15;;
55314;SDS011;41619;42.816;23.226;2023-06-19T08:50:24;6.97;;;4.10;;
55314;SDS011;41619;42.816;23.226;2023-06-19T08:52:50;5.82;;;4.07;;
55314;SDS011;41619;42.816;23.226;2023-06-19T08:55:15;11.52;;;4.47;;
55314;SDS011;41619;42.816;23.226;2023-06-19T08:57:41;10.35;;;4.03;;
55314;SDS011;41619;42.816;23.226;2023-06-19T09:00:06;6.15;;;4.30;;
55314;SDS011;41619;42.816;23.226;2023-06-19T09:02:37;4.75;;;3.67;;
55314;SDS011;41619;42.816;23.226;2023-06-19T09:05:13;8.57;;;4.03;;
55314;SDS011;41619;42.816;23.226;2023-06-19T09:07:53;12.05;;;4.40;;
55314;SDS011;41619;42.816;23.226;2023-06-19T09:10:20;6.10;;;4.20;;
55314;SDS011;41619;42.816;23.226;2023-06-19T09:13:02;6.43;;;3.72;;
55314;SDS011;41619;42.816;23.226;2023-06-19T09:15:30;4.82;;;4.03;;
55314;SDS011;41619;42.816;23.226;2023-06-19T09:18:07;9.25;;;4.63;;
55314;SDS011;41619;42.816;23.226;2023-06-19T09:20:35;11.52;;;4.15;;
55314;SDS011;41619;42.816;23.226;2023-06-19T09:23:04;7.05;;;4.32;;
55314;SDS011;41619;42.816;23.226;2023-06-19T09:25:30;4.97;;;4.32;;
55314;SDS011;41619;42.816;23.226;2023-06-19T09:27:56;7.25;;;4.20;;
55314;SDS011;41619;42.816;23.226;2023-06-19T09:30:22;10.52;;;4.55;;
55314;SDS011;41619;42.816;23.226;2023-06-19T09:32:48;8.18;;;4.60;;
55314;SDS011;41619;42.816;23.226;2023-06-19T09:35:14;7.03;;;4.32;;
55314;SDS011;41619;42.816;23.226;2023-06-19T09:37:40;6.95;;;3.80;;
55314;SDS011;41619;42.816;23.226;2023-06-19T09:40:06;7.05;;;4.30;;
55314;SDS011;41619;42.816;23.226;2023-06-19T09:42:37;6.82;;;4.30;;
55314;SDS011;41619;42.816;23.226;2023-06-19T09:45:05;6.45;;;4.03;;
55314;SDS011;41619;42.816;23.226;2023-06-19T09:47:36;7.90;;;4.10;;
55314;SDS011;41619;42.816;23.226;2023-06-19T09:50:03;13.15;;;4.18;;
55314;SDS011;41619;42.816;23.226;2023-06-19T09:52:29;6.65;;;4.22;;
55314;SDS011;41619;42.816;23.226;2023-06-19T09:54:55;6.57;;;4.60;;
55314;SDS011;41619;42.816;23.226;2023-06-19T09:57:22;10.18;;;4.28;;
55314;SDS011;41619;42.816;23.226;2023-06-19T09:59:52;21.67;;;5.38;;
55314;SDS011;41619;42.816;23.226;2023-06-19T10:02:20;9.75;;;5.20;;
55314;SDS011;41619;42.816;23.226;2023-06-19T10:04:49;10.73;;;4.32;;
55314;SDS011;41619;42.816;23.226;2023-06-19T10:10:05;7.72;;;4.10;;
55314;SDS011;41619;42.816;23.226;2023-06-19T10:12:45;14.45;;;4.38;;
55314;SDS011;41619;42.816;23.226;2023-06-19T10:20:29;8.23;;;4.20;;
55314;SDS011;41619;42.816;23.226;2023-06-19T10:22:59;7.72;;;4.97;;
55314;SDS011;41619;42.816;23.226;2023-06-19T10:25:28;8.40;;;4.55;;
55314;SDS011;41619;42.816;23.226;2023-06-19T10:27:56;7.43;;;3.80;;
55314;SDS011;41619;42.816;23.226;2023-06-19T10:30:22;6.22;;;4.32;;
55314;SDS011;41619;42.816;23.226;2023-06-19T10:32:48;9.15;;;4.75;;
55314;SDS011;41619;42.816;23.226;2023-06-19T10:35:14;7.55;;;4.22;;
55314;SDS011;41619;42.816;23.226;2023-06-19T10:37:41;8.05;;;4.35;;
55314;SDS011;41619;42.816;23.226;2023-06-19T10:40:10;8.18;;;4.45;;
55314;SDS011;41619;42.816;23.226;2023-06-19T10:42:37;7.20;;;4.38;;
55314;SDS011;41619;42.816;23.226;2023-06-19T10:45:03;14.43;;;4.00;;
55314;SDS011;41619;42.816;23.226;2023-06-19T10:47:34;8.30;;;4.25;;
55314;SDS011;41619;42.816;23.226;2023-06-19T10:49:59;9.55;;;4.47;;
55314;SDS011;41619;42.816;23.226;2023-06-19T10:52:27;6.35;;;4.28;;
55314;SDS011;41619;42.816;23.226;2023-06-19T10:54:54;7.82;;;4.15;;
55314;SDS011;41619;42.816;23.226;2023-06-19T10:57:29;6.35;;;4.18;;
55314;SDS011;41619;42.816;23.226;2023-06-19T10:59:57;8.25;;;4.07;;
55314;SDS011;41619;42.816;23.226;2023-06-19T11:02:23;6.18;;;4.07;;
55314;SDS011;41619;42.816;23.226;2023-06-19T11:04:51;4.45;;;4.05;;
55314;SDS011;41619;42.816;23.226;2023-06-19T11:07:18;6.82;;;4.55;;
55314;SDS011;41619;42.816;23.226;2023-06-19T11:09:44;13.10;;;4.65;;
55314;SDS011;41619;42.816;23.226;2023-06-19T11:12:09;10.27;;;4.25;;
55314;SDS011;41619;42.816;23.226;2023-06-19T11:14:35;5.28;;;4.40;;
55314;SDS011;41619;42.816;23.226;2023-06-19T11:17:05;11.35;;;4.13;;
55314;SDS011;41619;42.816;23.226;2023-06-19T11:19:31;7.07;;;4.50;;
55314;SDS011;41619;42.816;23.226;2023-06-19T11:21:58;13.80;;;4.68;;
55314;SDS011;41619;42.816;23.226;2023-06-19T11:24:24;9.40;;;4.63;;
55314;SDS011;41619;42.816;23.226;2023-06-19T11:26:50;8.23;;;4.57;;
55314;SDS011;41619;42.816;23.226;2023-06-19T11:29:20;6.35;;;4.20;;
55314;SDS011;41619;42.816;23.226;2023-06-19T11:31:50;7.50;;;4.85;;
55314;SDS011;41619;42.816;23.226;2023-06-19T11:34:16;8.45;;;4.10;;
55314;SDS011;41619;42.816;23.226;2023-06-19T11:36:42;10.95;;;4.35;;
55314;SDS011;41619;42.816;23.226;2023-06-19T11:39:09;5.40;;;4.20;;
55314;SDS011;41619;42.816;23.226;2023-06-19T11:41:36;15.40;;;4.67;;
55314;SDS011;41619;42.816;23.226;2023-06-19T11:44:05;5.38;;;4.20;;
55314;SDS011;41619;42.816;23.226;2023-06-19T11:46:33;7.03;;;4.53;;
55314;SDS011;41619;42.816;23.226;2023-06-19T11:49:15;8.95;;;3.72;;
55314;SDS011;41619;42.816;23.226;2023-06-19T11:51:44;7.38;;;3.95;;
55314;SDS011;41619;42.816;23.226;2023-06-19T11:54:11;7.80;;;4.07;;
55314;SDS011;41619;42.816;23.226;2023-06-19T11:56:39;9.18;;;4.47;;
55314;SDS011;41619;42.816;23.226;2023-06-19T11:59:05;4.97;;;3.92;;
55314;SDS011;41619;42.816;23.226;2023-06-19T12:01:34;6.30;;;4.55;;
55314;SDS011;41619;42.816;23.226;2023-06-19T12:04:01;10.95;;;4.13;;
55314;SDS011;41619;42.816;23.226;2023-06-19T12:06:27;5.28;;;3.97;;
55314;SDS011;41619;42.816;23.226;2023-06-19T12:08:53;6.30;;;4.13;;
55314;SDS011;41619;42.816;23.226;2023-06-19T12:11:19;6.95;;;3.78;;
55314;SDS011;41619;42.816;23.226;2023-06-19T12:13:44;8.43;;;4.40;;
55314;SDS011;41619;42.816;23.226;2023-06-19T12:16:10;7.22;;;4.28;;
55314;SDS011;41619;42.816;23.226;2023-06-19T12:18:36;5.10;;;3.97;;
55314;SDS011;41619;42.816;23.226;2023-06-19T12:21:01;6.00;;;4.20;;
55314;SDS011;41619;42.816;23.226;2023-06-19T12:23:27;8.60;;;4.10;;
55314;SDS011;41619;42.816;23.226;2023-06-19T12:25:53;10.13;;;4.50;;
55314;SDS011;41619;42.816;23.226;2023-06-19T12:28:18;10.38;;;4.05;;
55314;SDS011;41619;42.816;23.226;2023-06-19T12:30:44;9.10;;;4.30;;
55314;SDS011;41619;42.816;23.226;2023-06-19T12:33:10;8.90;;;4.22;;
55314;SDS011;41619;42.816;23.226;2023-06-19T12:35:40;6.40;;;4.22;;
55314;SDS011;41619;42.816;23.226;2023-06-19T12:38:09;17.85;;;3.88;;
55314;SDS011;41619;42.816;23.226;2023-06-19T12:40:38;7.30;;;4.15;;
55314;SDS011;41619;42.816;23.226;2023-06-19T12:43:04;6.20;;;4.00;;
55314;SDS011;41619;42.816;23.226;2023-06-19T12:45:29;12.25;;;4.32;;
55314;SDS011;41619;42.816;23.226;2023-06-19T12:47:55;5.05;;;3.83;;
55314;SDS011;41619;42.816;23.226;2023-06-19T12:50:20;4.57;;;3.90;;
55314;SDS011;41619;42.816;23.226;2023-06-19T12:52:46;9.75;;;4.15;;
55314;SDS011;41619;42.816;23.226;2023-06-19T12:55:11;6.35;;;4.05;;
55314;SDS011;41619;42.816;23.226;2023-06-19T12:57:36;8.25;;;4.20;;
55314;SDS011;41619;42.816;23.226;2023-06-19T13:00:02;5.07;;;3.80;;
55314;SDS011;41619;42.816;23.226;2023-06-19T13:02:32;7.30;;;3.92;;
55314;SDS011;41619;42.816;23.226;2023-06-19T13:04:58;9.48;;;4.00;;
55314;SDS011;41619;42.816;23.226;2023-06-19T13:07:23;9.82;;;4.28;;
55314;SDS011;41619;42.816;23.226;2023-06-19T13:09:49;8.23;;;3.67;;
55314;SDS011;41619;42.816;23.226;2023-06-19T13:12:14;6.63;;;3.97;;
55314;SDS011;41619;42.816;23.226;2023-06-19T13:14:40;8.27;;;4.10;;
55314;SDS011;41619;42.816;23.226;2023-06-19T13:17:05;5.88;;;3.75;;
55314;SDS011;41619;42.816;23.226;2023-06-19T13:19:31;5.03;;;4.00;;
55314;SDS011;41619;42.816;23.226;2023-06-19T13:21:57;8.27;;;3.70;;
55314;SDS011;41619;42.816;23.226;2023-06-19T13:24:22;6.13;;;3.70;;
55314;SDS011;41619;42.816;23.226;2023-06-19T13:26:48;8.13;;;3.80;;
55314;SDS011;41619;42.816;23.226;2023-06-19T13:29:14;8.20;;;4.00;;
55314;SDS011;41619;42.816;23.226;2023-06-19T13:31:40;13.45;;;4.20;;
55314;SDS011;41619;42.816;23.226;2023-06-19T13:34:05;11.38;;;4.00;;
55314;SDS011;41619;42.816;23.226;2023-06-19T13:36:31;7.25;;;3.92;;
55314;SDS011;41619;42.816;23.226;2023-06-19T13:38:56;7.95;;;3.88;;
55314;SDS011;41619;42.816;23.226;2023-06-19T13:41:22;8.18;;;4.45;;
55314;SDS011;41619;42.816;23.226;2023-06-19T13:43:51;12.45;;;4.00;;
55314;SDS011;41619;42.816;23.226;2023-06-19T13:46:18;8.30;;;3.90;;
55314;SDS011;41619;42.816;23.226;2023-06-19T13:48:44;6.85;;;3.65;;
55314;SDS011;41619;42.816;23.226;2023-06-19T13:51:13;7.80;;;4.32;;
55314;SDS011;41619;42.816;23.226;2023-06-19T13:53:39;7.75;;;4.57;;
55314;SDS011;41619;42.816;23.226;2023-06-19T13:56:04;8.27;;;3.80;;
55314;SDS011;41619;42.816;23.226;2023-06-19T13:58:29;5.10;;;4.20;;
55314;SDS011;41619;42.816;23.226;2023-06-19T14:00:55;6.90;;;4.35;;
55314;SDS011;41619;42.816;23.226;2023-06-19T14:03:21;12.20;;;4.80;;
55314;SDS011;41619;42.816;23.226;2023-06-19T14:05:49;5.38;;;4.18;;
55314;SDS011;41619;42.816;23.226;2023-06-19T14:08:14;5.35;;;3.95;;
55314;SDS011;41619;42.816;23.226;2023-06-19T14:10:40;8.93;;;4.57;;
55314;SDS011;41619;42.816;23.226;2023-06-19T14:13:05;9.02;;;4.35;;
55314;SDS011;41619;42.816;23.226;2023-06-19T14:15:30;6.38;;;4.15;;
55314;SDS011;41619;42.816;23.226;2023-06-19T14:17:56;8.18;;;4.43;;
55314;SDS011;41619;42.816;23.226;2023-06-19T14:20:21;8.73;;;4.45;;
55314;SDS011;41619;42.816;23.226;2023-06-19T14:22:46;7.68;;;4.53;;
55314;SDS011;41619;42.816;23.226;2023-06-19T14:25:12;7.03;;;4.13;;
55314;SDS011;41619;42.816;23.226;2023-06-19T14:27:37;10.38;;;4.47;;
55314;SDS011;41619;42.816;23.226;2023-06-19T14:30:03;4.88;;;3.95;;
55314;SDS011;41619;42.816;23.226;2023-06-19T14:32:29;5.70;;;4.82;;